sensor_id;sensor_type;location;lat;lon;timestamp;pressure;altitude;pressure_sealevel;temperature;humidity
80294;BME280;69594;43.516;1.498;2023-06-10T00:00:23;99345.41;;;16.60;80.64
80294;BME280;69594;43.516;1.498;2023-06-10T00:02:49;99342.16;;;16.57;80.62
80294;BME280;69594;43.516;1.498;2023-06-10T00:05:14;99342.16;;;16.57;80.68
80294;BME280;69594;43.516;1.498;2023-06-10T00:07:41;99346.81;;;16.55;80.84
80294;BME280;69594;43.516;1.498;2023-06-10T00:10:07;99336.22;;;16.49;80.73
80294;BME280;69594;43.516;1.498;2023-06-10T00:12:33;99339.06;;;16.47;80.60
80294;BME280;69594;43.516;1.498;2023-06-10T00:15:06;99333.16;;;16.45;80.33
80294;BME280;69594;43.516;1.498;2023-06-10T00:17:32;99327.66;;;16.40;80.37
80294;BME280;69594;43.516;1.498;2023-06-10T00:19:58;99319.50;;;16.35;80.37
80294;BME280;69594;43.516;1.498;2023-06-10T00:22:23;99324.38;;;16.32;80.31
80294;BME280;69594;43.516;1.498;2023-06-10T00:24:54;99326.00;;;16.26;80.55
80294;BME280;69594;43.516;1.498;2023-06-10T00:27:20;99320.72;;;16.26;80.34
80294;BME280;69594;43.516;1.498;2023-06-10T00:29:45;99318.25;;;16.25;80.33
80294;BME280;69594;43.516;1.498;2023-06-10T00:32:11;99320.50;;;16.28;80.52
80294;BME280;69594;43.516;1.498;2023-06-10T00:34:36;99312.78;;;16.26;80.33
80294;BME280;69594;43.516;1.498;2023-06-10T00:37:02;99318.88;;;16.27;80.69
80294;BME280;69594;43.516;1.498;2023-06-10T00:39:27;99314.16;;;16.22;80.83
80294;BME280;69594;43.516;1.498;2023-06-10T00:41:53;99310.94;;;16.20;80.52
80294;BME280;69594;43.516;1.498;2023-06-10T00:44:18;99308.66;;;16.17;80.71
80294;BME280;69594;43.516;1.498;2023-06-10T00:46:44;99301.31;;;16.12;80.76
80294;BME280;69594;43.516;1.498;2023-06-10T00:49:10;99306.84;;;16.11;80.59
80294;BME280;69594;43.516;1.498;2023-06-10T00:51:35;99304.38;;;16.09;80.79
80294;BME280;69594;43.516;1.498;2023-06-10T00:54:01;99297.88;;;16.05;80.99
80294;BME280;69594;43.516;1.498;2023-06-10T00:56:27;99305.81;;;16.05;80.88
80294;BME280;69594;43.516;1.498;2023-06-10T00:58:53;99312.94;;;16.05;80.79
80294;BME280;69594;43.516;1.498;2023-06-10T01:01:19;99307.41;;;16.00;81.22
80294;BME280;69594;43.516;1.498;2023-06-10T01:03:45;99318.59;;;16.02;80.91
80294;BME280;69594;43.516;1.498;2023-06-10T01:06:36;99306.78;;;15.98;80.78
80294;BME280;69594;43.516;1.498;2023-06-10T01:09:11;99312.88;;;15.92;81.08
80294;BME280;69594;43.516;1.498;2023-06-10T01:11:47;99312.06;;;15.91;81.05
80294;BME280;69594;43.516;1.498;2023-06-10T01:14:16;99316.13;;;15.94;81.08
80294;BME280;69594;43.516;1.498;2023-06-10T01:16:42;99310.66;;;15.95;80.75
80294;BME280;69594;43.516;1.498;2023-06-10T01:19:11;99307.19;;;15.95;81.00
80294;BME280;69594;43.516;1.498;2023-06-10T01:21:38;99309.84;;;15.95;80.84
80294;BME280;69594;43.516;1.498;2023-06-10T01:24:04;99311.22;;;15.91;80.79
80294;BME280;69594;43.516;1.498;2023-06-10T01:26:34;99311.03;;;15.92;80.79
80294;BME280;69594;43.516;1.498;2023-06-10T01:29:03;99311.84;;;15.93;80.69
80294;BME280;69594;43.516;1.498;2023-06-10T01:31:38;99320.81;;;15.92;80.63
80294;BME280;69594;43.516;1.498;2023-06-10T01:34:18;99308.00;;;15.89;80.48
80294;BME280;69594;43.516;1.498;2023-06-10T01:36:48;99309.63;;;15.90;80.74
80294;BME280;69594;43.516;1.498;2023-06-10T01:39:20;99296.59;;;15.88;80.73
80294;BME280;69594;43.516;1.498;2023-06-10T01:41:47;99293.94;;;15.88;80.63
80294;BME280;69594;43.516;1.498;2023-06-10T01:44:20;99307.16;;;15.88;80.69
80294;BME280;69594;43.516;1.498;2023-06-10T01:46:46;99296.59;;;15.88;80.90
80294;BME280;69594;43.516;1.498;2023-06-10T01:49:12;99296.59;;;15.88;80.56
80294;BME280;69594;43.516;1.498;2023-06-10T01:51:38;99308.00;;;15.89;80.84
80294;BME280;69594;43.516;1.498;2023-06-10T01:54:04;99305.53;;;15.87;80.60
80294;BME280;69594;43.516;1.498;2023-06-10T01:56:29;99302.66;;;15.82;80.39
80294;BME280;69594;43.516;1.498;2023-06-10T01:58:55;99308.78;;;15.83;80.70
80294;BME280;69594;43.516;1.498;2023-06-10T02:01:24;99311.59;;;15.81;80.87
80294;BME280;69594;43.516;1.498;2023-06-10T02:03:50;99309.19;;;15.80;80.38
80294;BME280;69594;43.516;1.498;2023-06-10T02:06:15;99311.19;;;15.78;80.53
80294;BME280;69594;43.516;1.498;2023-06-10T02:08:41;99308.75;;;15.76;80.79
80294;BME280;69594;43.516;1.498;2023-06-10T02:11:07;99309.75;;;15.75;80.74
80294;BME280;69594;43.516;1.498;2023-06-10T02:13:32;99306.31;;;15.75;80.79
80294;BME280;69594;43.516;1.498;2023-06-10T02:15:58;99311.59;;;15.75;80.75
80294;BME280;69594;43.516;1.498;2023-06-10T02:18:25;99317.09;;;15.73;80.85
80294;BME280;69594;43.516;1.498;2023-06-10T02:20:52;99314.63;;;15.71;80.90
80294;BME280;69594;43.516;1.498;2023-06-10T02:23:17;99323.56;;;15.70;80.77
80294;BME280;69594;43.516;1.498;2023-06-10T02:25:43;99316.84;;;15.68;80.83
80294;BME280;69594;43.516;1.498;2023-06-10T02:28:08;99305.88;;;15.64;80.92
80294;BME280;69594;43.516;1.498;2023-06-10T02:30:35;99316.03;;;15.67;80.70
80294;BME280;69594;43.516;1.498;2023-06-10T02:33:00;99316.44;;;15.64;81.05
80294;BME280;69594;43.516;1.498;2023-06-10T02:35:26;99315.00;;;15.62;81.04
80294;BME280;69594;43.516;1.498;2023-06-10T02:37:51;99320.09;;;15.63;81.24
80294;BME280;69594;43.516;1.498;2023-06-10T02:40:17;99325.56;;;15.62;81.23
80294;BME280;69594;43.516;1.498;2023-06-10T02:42:42;99328.22;;;15.62;81.29
80294;BME280;69594;43.516;1.498;2023-06-10T02:45:08;99324.94;;;15.60;81.04
80294;BME280;69594;43.516;1.498;2023-06-10T02:47:37;99328.63;;;15.59;80.97
80294;BME280;69594;43.516;1.498;2023-06-10T02:50:02;99331.44;;;15.57;80.88
80294;BME280;69594;43.516;1.498;2023-06-10T02:52:28;99324.72;;;15.55;80.92
80294;BME280;69594;43.516;1.498;2023-06-10T02:54:55;99330.63;;;15.57;81.07
80294;BME280;69594;43.516;1.498;2023-06-10T02:57:20;99329.22;;;15.54;81.33
80294;BME280;69594;43.516;1.498;2023-06-10T02:59:46;99325.28;;;15.50;81.29
80294;BME280;69594;43.516;1.498;2023-06-10T03:02:11;99333.19;;;15.50;81.09
80294;BME280;69594;43.516;1.498;2023-06-10T03:04:37;99334.59;;;15.46;81.09
80294;BME280;69594;43.516;1.498;2023-06-10T03:07:03;99338.25;;;15.45;80.88
80294;BME280;69594;43.516;1.498;2023-06-10T03:09:32;99334.19;;;15.43;80.90
80294;BME280;69594;43.516;1.498;2023-06-10T03:11:58;99331.72;;;15.41;80.85
80294;BME280;69594;43.516;1.498;2023-06-10T03:14:25;99339.25;;;15.38;81.10
80294;BME280;69594;43.516;1.498;2023-06-10T03:16:50;99331.50;;;15.36;81.10
80294;BME280;69594;43.516;1.498;2023-06-10T03:19:16;99337.19;;;15.33;81.25
80294;BME280;69594;43.516;1.498;2023-06-10T03:21:44;99330.09;;;15.34;81.06
80294;BME280;69594;43.516;1.498;2023-06-10T03:24:10;99341.84;;;15.31;81.21
80294;BME280;69594;43.516;1.498;2023-06-10T03:26:36;99333.28;;;15.29;81.64
80294;BME280;69594;43.516;1.498;2023-06-10T03:29:01;99341.03;;;15.30;81.24
80294;BME280;69594;43.516;1.498;2023-06-10T03:31:27;99343.03;;;15.28;81.73
80294;BME280;69594;43.516;1.498;2023-06-10T03:33:52;99346.31;;;15.30;81.24
80294;BME280;69594;43.516;1.498;2023-06-10T03:36:19;99352.19;;;15.26;81.37
80294;BME280;69594;43.516;1.498;2023-06-10T03:38:44;99356.81;;;15.24;81.70
80294;BME280;69594;43.516;1.498;2023-06-10T03:41:10;99347.84;;;15.18;81.50
80294;BME280;69594;43.516;1.498;2023-06-10T03:43:37;99353.94;;;15.19;81.33
80294;BME280;69594;43.516;1.498;2023-06-10T03:46:05;99357.22;;;15.21;81.35
80294;BME280;69594;43.516;1.498;2023-06-10T03:48:30;99364.50;;;15.19;81.47
80294;BME280;69594;43.516;1.498;2023-06-10T03:50:56;99359.63;;;15.16;81.36
80294;BME280;69594;43.516;1.498;2023-06-10T03:53:21;99360.25;;;15.18;81.26
80294;BME280;69594;43.516;1.498;2023-06-10T03:55:47;99361.88;;;15.19;81.40
80294;BME280;69594;43.516;1.498;2023-06-10T03:58:13;99362.91;;;15.18;81.41
80294;BME280;69594;43.516;1.498;2023-06-10T04:00:39;99364.91;;;15.16;81.19
80294;BME280;69594;43.516;1.498;2023-06-10T04:03:09;99369.84;;;15.25;81.00
80294;BME280;69594;43.516;1.498;2023-06-10T04:05:40;99372.31;;;15.27;81.01
80294;BME280;69594;43.516;1.498;2023-06-10T04:08:05;99369.66;;;15.27;81.99
80294;BME280;69594;43.516;1.498;2023-06-10T04:10:32;99372.97;;;15.36;81.88
80294;BME280;69594;43.516;1.498;2023-06-10T04:12:57;99376.66;;;15.41;81.85
80294;BME280;69594;43.516;1.498;2023-06-10T04:15:22;99373.63;;;15.44;81.78
80294;BME280;69594;43.516;1.498;2023-06-10T04:17:48;99383.44;;;15.50;81.69
80294;BME280;69594;43.516;1.498;2023-06-10T04:20:14;99390.19;;;15.53;81.41
80294;BME280;69594;43.516;1.498;2023-06-10T04:22:40;99380.63;;;15.52;81.12
80294;BME280;69594;43.516;1.498;2023-06-10T04:25:06;99383.31;;;15.58;81.14
80294;BME280;69594;43.516;1.498;2023-06-10T04:27:32;99392.47;;;15.62;80.92
80294;BME280;69594;43.516;1.498;2023-06-10T04:29:58;99390.06;;;15.67;80.58
80294;BME280;69594;43.516;1.498;2023-06-10T04:32:24;99390.72;;;15.69;80.57
80294;BME280;69594;43.516;1.498;2023-06-10T04:34:49;99386.44;;;15.75;80.06
80294;BME280;69594;43.516;1.498;2023-06-10T04:37:14;99397.47;;;15.79;79.83
80294;BME280;69594;43.516;1.498;2023-06-10T04:39:40;99395.41;;;15.81;79.59
80294;BME280;69594;43.516;1.498;2023-06-10T04:42:06;99403.56;;;15.86;79.75
80294;BME280;69594;43.516;1.498;2023-06-10T04:44:32;99411.75;;;15.91;79.32
80294;BME280;69594;43.516;1.498;2023-06-10T04:46:57;99398.75;;;15.96;78.87
80294;BME280;69594;43.516;1.498;2023-06-10T04:49:23;99393.72;;;16.01;78.61
80294;BME280;69594;43.516;1.498;2023-06-10T04:51:48;99407.56;;;16.09;78.79
80294;BME280;69594;43.516;1.498;2023-06-10T04:54:13;99400.88;;;16.13;78.39
80294;BME280;69594;43.516;1.498;2023-06-10T04:56:39;99401.09;;;16.19;77.94
80294;BME280;69594;43.516;1.498;2023-06-10T04:59:05;99402.53;;;16.28;77.79
80294;BME280;69594;43.516;1.498;2023-06-10T05:01:30;99399.91;;;16.34;77.70
80294;BME280;69594;43.516;1.498;2023-06-10T05:03:55;99397.91;;;16.43;77.46
80294;BME280;69594;43.516;1.498;2023-06-10T05:06:21;99403.84;;;16.51;77.28
80294;BME280;69594;43.516;1.498;2023-06-10T05:08:46;99408.38;;;16.71;76.97
80294;BME280;69594;43.516;1.498;2023-06-10T05:11:12;99401.41;;;19.27;69.87
80294;BME280;69594;43.516;1.498;2023-06-10T05:13:37;99405.78;;;19.15;69.15
80294;BME280;69594;43.516;1.498;2023-06-10T05:16:05;99404.97;;;18.58;71.44
80294;BME280;69594;43.516;1.498;2023-06-10T05:18:31;99401.22;;;18.27;72.52
80294;BME280;69594;43.516;1.498;2023-06-10T05:20:56;99408.06;;;18.04;73.04
80294;BME280;69594;43.516;1.498;2023-06-10T05:23:21;99405.47;;;17.84;73.85
80294;BME280;69594;43.516;1.498;2023-06-10T05:25:47;99406.94;;;17.67;74.24
80294;BME280;69594;43.516;1.498;2023-06-10T05:28:13;99403.44;;;20.41;66.97
80294;BME280;69594;43.516;1.498;2023-06-10T05:30:38;99395.91;;;24.46;56.28
80294;BME280;69594;43.516;1.498;2023-06-10T05:33:04;99401.09;;;26.78;50.52
80294;BME280;69594;43.516;1.498;2023-06-10T05:35:30;99407.88;;;28.20;47.46
80294;BME280;69594;43.516;1.498;2023-06-10T05:37:55;99408.75;;;29.33;45.27
80294;BME280;69594;43.516;1.498;2023-06-10T05:40:21;99417.41;;;30.30;43.32
80294;BME280;69594;43.516;1.498;2023-06-10T05:42:46;99416.66;;;31.18;41.74
80294;BME280;69594;43.516;1.498;2023-06-10T05:45:12;99424.59;;;31.74;40.59
80294;BME280;69594;43.516;1.498;2023-06-10T05:47:38;99438.16;;;32.29;39.69
80294;BME280;69594;43.516;1.498;2023-06-10T05:50:05;99435.28;;;32.97;38.53
80294;BME280;69594;43.516;1.498;2023-06-10T05:52:35;99435.63;;;33.49;36.89
80294;BME280;69594;43.516;1.498;2023-06-10T05:55:04;99428.19;;;34.02;37.19
80294;BME280;69594;43.516;1.498;2023-06-10T05:57:30;99431.19;;;34.49;36.29
80294;BME280;69594;43.516;1.498;2023-06-10T05:59:55;99435.50;;;35.10;35.80
80294;BME280;69594;43.516;1.498;2023-06-10T06:02:21;99431.94;;;35.44;35.07
80294;BME280;69594;43.516;1.498;2023-06-10T06:04:46;99435.88;;;35.72;34.83
80294;BME280;69594;43.516;1.498;2023-06-10T06:07:12;99442.13;;;36.11;33.80
80294;BME280;69594;43.516;1.498;2023-06-10T06:09:37;99442.44;;;36.59;33.25
80294;BME280;69594;43.516;1.498;2023-06-10T06:12:03;99451.38;;;36.89;32.70
80294;BME280;69594;43.516;1.498;2023-06-10T06:14:31;99446.50;;;37.16;32.47
80294;BME280;69594;43.516;1.498;2023-06-10T06:16:57;99456.56;;;37.69;31.67
80294;BME280;69594;43.516;1.498;2023-06-10T06:19:23;99448.00;;;38.31;30.93
80294;BME280;69594;43.516;1.498;2023-06-10T06:21:48;99451.66;;;38.47;31.21
80294;BME280;69594;43.516;1.498;2023-06-10T06:24:15;99448.69;;;38.92;30.10
80294;BME280;69594;43.516;1.498;2023-06-10T06:26:41;99448.97;;;39.31;29.85
80294;BME280;69594;43.516;1.498;2023-06-10T06:29:06;99449.97;;;39.70;29.12
80294;BME280;69594;43.516;1.498;2023-06-10T06:31:31;99458.56;;;40.15;28.77
80294;BME280;69594;43.516;1.498;2023-06-10T06:33:57;99452.34;;;40.53;28.24
80294;BME280;69594;43.516;1.498;2023-06-10T06:36:22;99452.47;;;41.14;27.78
80294;BME280;69594;43.516;1.498;2023-06-10T06:38:48;99460.09;;;41.44;27.60
80294;BME280;69594;43.516;1.498;2023-06-10T06:41:13;99462.25;;;41.12;27.52
80294;BME280;69594;43.516;1.498;2023-06-10T06:43:39;99460.78;;;41.18;28.00
80294;BME280;69594;43.516;1.498;2023-06-10T06:46:05;99460.91;;;41.67;27.05
80294;BME280;69594;43.516;1.498;2023-06-10T06:48:30;99470.34;;;42.15;26.87
80294;BME280;69594;43.516;1.498;2023-06-10T06:50:56;99469.72;;;42.25;26.71
80294;BME280;69594;43.516;1.498;2023-06-10T06:53:23;99466.53;;;42.50;25.83
80294;BME280;69594;43.516;1.498;2023-06-10T06:55:48;99469.91;;;42.13;26.53
80294;BME280;69594;43.516;1.498;2023-06-10T06:58:13;99466.63;;;42.57;26.05
80294;BME280;69594;43.516;1.498;2023-06-10T07:00:39;99466.81;;;43.01;25.69
80294;BME280;69594;43.516;1.498;2023-06-10T07:03:04;99456.25;;;43.47;25.43
80294;BME280;69594;43.516;1.498;2023-06-10T07:05:30;99460.72;;;44.06;25.01
80294;BME280;69594;43.516;1.498;2023-06-10T07:07:56;99458.69;;;43.52;25.09
80294;BME280;69594;43.516;1.498;2023-06-10T07:10:22;99462.66;;;43.98;24.64
80294;BME280;69594;43.516;1.498;2023-06-10T07:12:48;99464.00;;;44.26;24.19
80294;BME280;69594;43.516;1.498;2023-06-10T07:15:13;99467.31;;;44.49;24.09
80294;BME280;69594;43.516;1.498;2023-06-10T07:17:39;99464.69;;;44.77;24.22
80294;BME280;69594;43.516;1.498;2023-06-10T07:20:04;99464.09;;;45.37;23.36
80294;BME280;69594;43.516;1.498;2023-06-10T07:22:30;99470.88;;;45.75;23.15
80294;BME280;69594;43.516;1.498;2023-06-10T07:24:56;99468.88;;;46.18;22.76
80294;BME280;69594;43.516;1.498;2023-06-10T07:27:21;99468.88;;;45.61;23.47
80294;BME280;69594;43.516;1.498;2023-06-10T07:29:46;99466.88;;;46.36;22.48
80294;BME280;69594;43.516;1.498;2023-06-10T07:32:12;99457.38;;;46.16;22.86
80294;BME280;69594;43.516;1.498;2023-06-10T07:34:37;99460.06;;;46.55;22.30
80294;BME280;69594;43.516;1.498;2023-06-10T07:37:04;99459.13;;;46.86;21.96
80294;BME280;69594;43.516;1.498;2023-06-10T07:39:29;99460.84;;;46.63;22.46
80294;BME280;69594;43.516;1.498;2023-06-10T07:41:55;99466.53;;;45.95;22.80
80294;BME280;69594;43.516;1.498;2023-06-10T07:44:24;99469.22;;;46.34;21.82
80294;BME280;69594;43.516;1.498;2023-06-10T07:46:50;99476.25;;;46.78;22.19
80294;BME280;69594;43.516;1.498;2023-06-10T07:49:16;99465.38;;;47.15;21.86
80294;BME280;69594;43.516;1.498;2023-06-10T07:51:41;99478.13;;;47.02;21.57
80294;BME280;69594;43.516;1.498;2023-06-10T07:54:07;99478.06;;;47.13;21.39
80294;BME280;69594;43.516;1.498;2023-06-10T07:56:33;99479.78;;;46.82;22.11
80294;BME280;69594;43.516;1.498;2023-06-10T07:59:00;99482.16;;;46.80;21.63
80294;BME280;69594;43.516;1.498;2023-06-10T08:01:30;99488.47;;;46.98;21.11
80294;BME280;69594;43.516;1.498;2023-06-10T08:03:56;99488.41;;;47.05;21.44
80294;BME280;69594;43.516;1.498;2023-06-10T08:06:22;99481.34;;;46.86;21.58
80294;BME280;69594;43.516;1.498;2023-06-10T08:08:47;99477.09;;;46.68;21.84
80294;BME280;69594;43.516;1.498;2023-06-10T08:11:13;99483.72;;;46.88;21.68
80294;BME280;69594;43.516;1.498;2023-06-10T08:13:38;99487.63;;;47.08;21.37
80294;BME280;69594;43.516;1.498;2023-06-10T08:16:05;99485.16;;;47.17;21.23
80294;BME280;69594;43.516;1.498;2023-06-10T08:18:30;99488.41;;;47.09;21.01
80294;BME280;69594;43.516;1.498;2023-06-10T08:20:56;99482.94;;;46.95;20.94
80294;BME280;69594;43.516;1.498;2023-06-10T08:23:22;99473.72;;;47.08;21.08
80294;BME280;69594;43.516;1.498;2023-06-10T08:25:47;99481.16;;;47.25;20.74
80294;BME280;69594;43.516;1.498;2023-06-10T08:28:12;99477.91;;;47.41;20.49
80294;BME280;69594;43.516;1.498;2023-06-10T08:30:38;99479.47;;;47.42;20.78
80294;BME280;69594;43.516;1.498;2023-06-10T08:33:05;99474.63;;;47.57;20.00
80294;BME280;69594;43.516;1.498;2023-06-10T08:35:30;99472.28;;;47.52;20.36
80294;BME280;69594;43.516;1.498;2023-06-10T08:37:55;99480.38;;;47.28;20.67
80294;BME280;69594;43.516;1.498;2023-06-10T08:40:21;99485.09;;;47.31;21.23
80294;BME280;69594;43.516;1.498;2023-06-10T08:42:57;99485.69;;;46.98;20.23
80294;BME280;69594;43.516;1.498;2023-06-10T08:45:27;99496.78;;;46.98;21.06
80294;BME280;69594;43.516;1.498;2023-06-10T08:47:57;99491.66;;;46.86;20.82
80294;BME280;69594;43.516;1.498;2023-06-10T08:50:23;99496.91;;;46.66;21.71
80294;BME280;69594;43.516;1.498;2023-06-10T08:52:51;99489.00;;;46.43;21.54
80294;BME280;69594;43.516;1.498;2023-06-10T08:55:23;99491.78;;;46.47;21.77
80294;BME280;69594;43.516;1.498;2023-06-10T08:57:53;99498.16;;;46.33;22.05
80294;BME280;69594;43.516;1.498;2023-06-10T09:00:19;99493.06;;;46.00;22.26
80294;BME280;69594;43.516;1.498;2023-06-10T09:02:45;99486.28;;;45.73;22.06
80294;BME280;69594;43.516;1.498;2023-06-10T09:05:11;99492.59;;;45.41;22.06
80294;BME280;69594;43.516;1.498;2023-06-10T09:07:38;99488.94;;;45.09;22.36
80294;BME280;69594;43.516;1.498;2023-06-10T09:10:05;99486.91;;;44.95;22.75
80294;BME280;69594;43.516;1.498;2023-06-10T09:12:33;99491.66;;;44.95;22.54
80294;BME280;69594;43.516;1.498;2023-06-10T09:15:00;99488.38;;;44.68;22.71
80294;BME280;69594;43.516;1.498;2023-06-10T09:17:28;99492.22;;;44.45;22.74
80294;BME280;69594;43.516;1.498;2023-06-10T09:19:54;99482.53;;;44.22;22.91
80294;BME280;69594;43.516;1.498;2023-06-10T09:22:21;99486.16;;;43.78;23.12
80294;BME280;69594;43.516;1.498;2023-06-10T09:24:47;99487.13;;;43.19;23.51
80294;BME280;69594;43.516;1.498;2023-06-10T09:27:13;99488.19;;;42.77;23.92
80294;BME280;69594;43.516;1.498;2023-06-10T09:29:53;99486.22;;;42.48;23.24
80294;BME280;69594;43.516;1.498;2023-06-10T09:32:19;99483.16;;;42.04;24.13
80294;BME280;69594;43.516;1.498;2023-06-10T09:34:45;99493.41;;;41.81;24.38
80294;BME280;69594;43.516;1.498;2023-06-10T09:37:11;99480.41;;;40.97;25.48
80294;BME280;69594;43.516;1.498;2023-06-10T09:39:39;99475.63;;;39.89;26.06
80294;BME280;69594;43.516;1.498;2023-06-10T09:42:18;99467.97;;;39.51;26.21
80294;BME280;69594;43.516;1.498;2023-06-10T09:44:50;99471.13;;;39.38;27.10
80294;BME280;69594;43.516;1.498;2023-06-10T09:47:20;99468.09;;;38.87;27.50
80294;BME280;69594;43.516;1.498;2023-06-10T09:49:48;99465.63;;;38.18;28.44
80294;BME280;69594;43.516;1.498;2023-06-10T09:52:13;99465.25;;;36.63;30.35
80294;BME280;69594;43.516;1.498;2023-06-10T09:54:39;99463.13;;;35.81;31.19
80294;BME280;69594;43.516;1.498;2023-06-10T09:57:07;99462.13;;;35.30;31.45
80294;BME280;69594;43.516;1.498;2023-06-10T09:59:34;99460.72;;;34.81;32.09
80294;BME280;69594;43.516;1.498;2023-06-10T10:02:01;99455.66;;;34.23;33.18
80294;BME280;69594;43.516;1.498;2023-06-10T10:04:26;99463.78;;;33.75;33.64
80294;BME280;69594;43.516;1.498;2023-06-10T10:06:53;99461.22;;;33.03;34.47
80294;BME280;69594;43.516;1.498;2023-06-10T10:09:19;99460.75;;;32.52;35.57
80294;BME280;69594;43.516;1.498;2023-06-10T10:11:45;99454.13;;;32.03;36.36
80294;BME280;69594;43.516;1.498;2023-06-10T10:14:13;99456.97;;;31.71;37.10
80294;BME280;69594;43.516;1.498;2023-06-10T10:16:42;99451.06;;;31.50;37.17
80294;BME280;69594;43.516;1.498;2023-06-10T10:19:12;99452.28;;;31.25;37.57
80294;BME280;69594;43.516;1.498;2023-06-10T10:21:50;99450.06;;;30.95;37.69
80294;BME280;69594;43.516;1.498;2023-06-10T10:24:31;99444.94;;;30.74;38.23
80294;BME280;69594;43.516;1.498;2023-06-10T10:27:01;99451.31;;;30.65;38.33
80294;BME280;69594;43.516;1.498;2023-06-10T10:29:37;99441.66;;;30.59;38.23
80294;BME280;69594;43.516;1.498;2023-06-10T10:32:04;99444.56;;;30.62;38.88
80294;BME280;69594;43.516;1.498;2023-06-10T10:35:05;99443.13;;;30.27;39.31
80294;BME280;69594;43.516;1.498;2023-06-10T10:37:32;99443.31;;;30.36;39.14
80294;BME280;69594;43.516;1.498;2023-06-10T10:39:59;99445.63;;;30.24;39.67
80294;BME280;69594;43.516;1.498;2023-06-10T10:42:26;99436.97;;;30.22;38.99
80294;BME280;69594;43.516;1.498;2023-06-10T10:44:52;99449.47;;;30.18;38.87
80294;BME280;69594;43.516;1.498;2023-06-10T10:47:21;99443.53;;;30.16;38.71
80294;BME280;69594;43.516;1.498;2023-06-10T10:49:53;99443.53;;;30.16;39.21
80294;BME280;69594;43.516;1.498;2023-06-10T10:52:19;99446.38;;;30.29;38.99
80294;BME280;69594;43.516;1.498;2023-06-10T10:54:46;99439.69;;;30.22;38.75
80294;BME280;69594;43.516;1.498;2023-06-10T10:57:18;99437.78;;;30.22;38.80
80294;BME280;69594;43.516;1.498;2023-06-10T11:02:17;99446.66;;;30.28;38.42
80294;BME280;69594;43.516;1.498;2023-06-10T11:04:47;99437.34;;;30.15;38.72
80294;BME280;69594;43.516;1.498;2023-06-10T11:07:13;99436.97;;;30.22;38.38
80294;BME280;69594;43.516;1.498;2023-06-10T11:10:11;99435.94;;;29.99;36.24
80294;BME280;69594;43.516;1.498;2023-06-10T11:15:06;99428.47;;;29.62;38.01
80294;BME280;69594;43.516;1.498;2023-06-10T11:17:32;99435.50;;;29.63;38.38
80294;BME280;69594;43.516;1.498;2023-06-10T11:19:59;99434.47;;;29.54;38.90
80294;BME280;69594;43.516;1.498;2023-06-10T11:22:24;99438.13;;;29.68;38.68
80294;BME280;69594;43.516;1.498;2023-06-10T11:24:50;99423.59;;;29.88;38.18
80294;BME280;69594;43.516;1.498;2023-06-10T11:27:23;99431.25;;;30.05;37.87
80294;BME280;69594;43.516;1.498;2023-06-10T11:32:33;99430.09;;;30.11;37.99
80294;BME280;69594;43.516;1.498;2023-06-10T11:35:00;99422.81;;;30.30;37.86
80294;BME280;69594;43.516;1.498;2023-06-10T11:37:28;99416.56;;;30.53;37.34
80294;BME280;69594;43.516;1.498;2023-06-10T11:39:54;99415.84;;;30.66;37.24
80294;BME280;69594;43.516;1.498;2023-06-10T11:42:20;99416.00;;;30.56;37.14
80294;BME280;69594;43.516;1.498;2023-06-10T11:44:55;99413.22;;;30.61;36.19
80294;BME280;69594;43.516;1.498;2023-06-10T11:47:21;99412.59;;;30.64;37.21
80294;BME280;69594;43.516;1.498;2023-06-10T11:49:56;99407.94;;;30.51;35.94
80294;BME280;69594;43.516;1.498;2023-06-10T11:52:32;99409.94;;;30.22;35.52
80294;BME280;69594;43.516;1.498;2023-06-10T11:54:58;99405.72;;;29.92;36.96
80294;BME280;69594;43.516;1.498;2023-06-10T11:57:24;99404.78;;;30.02;36.87
80294;BME280;69594;43.516;1.498;2023-06-10T11:59:50;99406.56;;;29.87;36.94
80294;BME280;69594;43.516;1.498;2023-06-10T12:02:16;99401.19;;;30.06;36.88
80294;BME280;69594;43.516;1.498;2023-06-10T12:04:42;99400.25;;;30.16;36.74
80294;BME280;69594;43.516;1.498;2023-06-10T12:07:07;99398.81;;;30.42;36.28
80294;BME280;69594;43.516;1.498;2023-06-10T12:09:32;99398.25;;;30.64;35.97
80294;BME280;69594;43.516;1.498;2023-06-10T12:11:59;99388.94;;;30.89;35.79
80294;BME280;69594;43.516;1.498;2023-06-10T12:14:50;99382.56;;;30.98;34.76
80294;BME280;69594;43.516;1.498;2023-06-10T12:19:59;99386.63;;;31.14;35.22
80294;BME280;69594;43.516;1.498;2023-06-10T12:22:25;99381.03;;;31.24;35.48
80294;BME280;69594;43.516;1.498;2023-06-10T12:25:01;99373.03;;;31.33;34.66
80294;BME280;69594;43.516;1.498;2023-06-10T12:27:28;99381.09;;;31.06;35.23
80294;BME280;69594;43.516;1.498;2023-06-10T12:29:56;99376.91;;;30.95;35.97
80294;BME280;69594;43.516;1.498;2023-06-10T12:32:45;99371.47;;;30.62;34.68
80294;BME280;69594;43.516;1.498;2023-06-10T12:35:24;99365.03;;;30.77;35.46
80294;BME280;69594;43.516;1.498;2023-06-10T12:38:00;99361.06;;;30.88;34.59
80294;BME280;69594;43.516;1.498;2023-06-10T12:40:28;99357.59;;;31.01;35.10
80294;BME280;69594;43.516;1.498;2023-06-10T12:42:54;99350.22;;;31.20;34.92
80294;BME280;69594;43.516;1.498;2023-06-10T12:45:35;99341.41;;;31.42;34.53
80294;BME280;69594;43.516;1.498;2023-06-10T12:50:31;99335.72;;;30.98;35.04
80294;BME280;69594;43.516;1.498;2023-06-10T12:52:59;99334.66;;;30.80;35.80
80294;BME280;69594;43.516;1.498;2023-06-10T12:55:25;99332.28;;;30.41;36.14
80294;BME280;69594;43.516;1.498;2023-06-10T12:57:51;99332.78;;;30.24;36.50
80294;BME280;69594;43.516;1.498;2023-06-10T13:00:20;99335.06;;;29.98;36.75
80294;BME280;69594;43.516;1.498;2023-06-10T13:02:46;99332.69;;;30.11;37.07
80294;BME280;69594;43.516;1.498;2023-06-10T13:05:11;99328.13;;;30.30;36.30
80294;BME280;69594;43.516;1.498;2023-06-10T13:07:37;99321.94;;;30.43;35.99
80294;BME280;69594;43.516;1.498;2023-06-10T13:10:02;99324.38;;;30.63;35.45
80294;BME280;69594;43.516;1.498;2023-06-10T13:12:29;99324.38;;;30.63;35.39